Murphy, ID (83650)

9:10 PM MDT on August 22, 2014 (GMT -0600)
SE Of Kuna | Change Station
CLOSE
Current Station
Personal Weather Station
Location: Kuna, ID
Elevation: 2769 ft
Nearby Weather Stations

Elev 2769 ft 43.46 °N, 116.33 °W | Updated 3 seconds ago

Scattered Clouds
Scattered Clouds
68.0 °F
Feels Like 68.0 °F
N
7.2
Wind Variable Wind from West
Gusts 9.2 mph

Today
High -- | Low -- °F
--% Chance of Precip.
Yesterday
High -- | Low -- °F
Precip. -- in
6:59 AM 8:37 PM
Waning Crescent, 5% visible
Pressure 29.90 in
Visibility 10.0 miles
Clouds Scattered Clouds 12000 ft
Dew Point 44 °F
Humidity 41%
Rainfall 0.00 in
Snow Depth Not available.
UV 0 out of 12
Pollen 7.40 out of 12
PM2.5 Good
Flu Activity Not available.
METAR KMAN 230255Z AUTO 36007KT 10SM SCT120 22/04 A2990 RMK AO1

More Conditions Fewer Conditions

Pressure 29.90 in
Visibility 10.0 miles
Clouds Scattered Clouds 12000 ft
Dew Point 44 °F
Humidity 41%
Rainfall 0.00 in
Snow Depth Not available.
UV 0 out of 12
Pollen 7.40 out of 12
PM2.5 Good
Flu Activity Not available.
METAR KMAN 230255Z AUTO 36007KT 10SM SCT120 22/04 A2990 RMK AO1

More Conditions Fewer Conditions

10-Day Weather Forecast

Almanac

Astronomy

Aug. 22, 2014 Rise Set
Actual Time 6:59 AM MDT 8:37 PM MDT
Civil Twilight 6:29 AM MDT 9:07 PM MDT
Nautical Twilight 5:52 AM MDT 9:44 PM MDT
Astronomical Twilight 5:13 AM MDT 10:23 PM MDT
Moon 4:24 AM MDT (8/22) 6:50 PM MDT (8/22)
Length of Visible Light 14h 38m
Length of Day
13h 38m
Tomorrow will be 2m 44s shorter.
Waning Crescent, 5% of the Moon is Illuminated
Today
Waning Crescent
Aug 25
New
Sep 2
First Quarter
Sep 8
Full
Sep 15
Last Quarter

Today's Extremes

State Highs State Lows

Community

WunderPhotos

Upload Photos

1,746,345 photos uploaded!

WunderBlogs® & News

Nearby

Air Quality

  Air Quality AQ Index Pollutant
Yesterday Good
OZONE
Yesterday Good
PM10
Current Good
PM2.5
Friday Good
OZONE
Saturday Good
OZONE
Sunday Good
OZONE
Monday Good
OZONE
Tuesday Good
OZONE

Snow Depth

Station Depth Elevation
Mud Flat 0 in 5730 ft
Camas Creek Divide 0 in 5710 ft
Trinity Mountain 0 in 7770 ft
Atlanta Summit 0 in 7580 ft
Jackson Peak 1 in 7070 ft

Earthquake Activity

City Distance Mag. Time & Date
No recent earthquake activity has been reported nearby.
Minimum magnitude displayed is 2.5.

Coastal Water Temperatures

Place Temperature
No Stations Reporting

Nearby Weather Stations